Aérodrome :
LOGIN :

S'inscrire | Disclaimer

   EN    FR    IT 

 










Légende :    VFR   VFR Marginal   IFR   IFR Intensif   IFR Très Intensif
Visi : 
Plafond : 
>= 8 km
>= 3000ft
5 à 8 km
1000 à 3000 ft
1500m à 5 km
500 à 1000 ft
800 à 1500m
200 à 500 ft
< 800m
< 200 ft
Symboles :   Orages  Brouillard  Fortes neiges  Fortes précipitations  Vent > 20 kt
SIGMETs :   Divers  Orages  Givrage  Turbulence  Onde Orograph.  Cendres Volcan.






- Altitude de l'aérodrome : 3368 ft


LSGC - Les Eplatures

DERNIER METAR :
  • 041520Z AUTO VRB02KT 9999 FEW009 BKN016 OVC018 12/12 Q1014

METARs EXPIRÉS :
  • 041450Z 30005KT 260V340 4000 BR SCT003 BKN007 OVC018 12/11 Q1014
  • 041420Z VRB02KT 9999 -RA FEW006 BKN009 OVC018 12/12 Q1014 REDZ
  • 041350Z VRB02KT 9999 -RA FEW008 BKN010 OVC018 13/12 Q1014
  • 041320Z VRB02KT 9999 -RA FEW008 BKN010 OVC018 13/11 Q1014
  • 041250Z 06001KT 9999 -RA BKN011 OVC016 13/11 Q1014

TAF TAF LSGC
Valide du 04 à 15h jusqu'au 05 à 00h UTC


041425Z 0415/0424 VRB02KT 9999 -RA FEW008 BKN010 BKN025
TEMPO 0420/0424 BKN020



MET'MAP, la Météo Aéronautique d'un coup d'oeil ! - Copyright ORBIFLY Décembre 2007 - Disclaimer

ORBIFLY MET'MAP TEAM :

Programmation & Développement : Alexandra Zaïnal
Sur une idée originale de : Baudouin d'Aumeries
Assistance à la programmation : Marc-Olivier Méhu
Soutien technique & logistique : Manuel Goepfert

Contact : metmap@orbifly.com




SOURCES & CREDITS :

   NOAA